createdAt,value
2022-12-25T00:04:56.069Z,4.02
2022-12-25T00:15:00.123Z,3.98
2022-12-25T00:25:04.535Z,4.04
2022-12-25T00:35:08.790Z,4.03
2022-12-25T00:45:13.149Z,4.11
2022-12-25T00:55:19.088Z,4.29
2022-12-25T01:05:22.853Z,4.26
2022-12-25T01:15:27.027Z,4.08
2022-12-25T01:25:30.904Z,3.98
2022-12-25T01:35:35.182Z,4.05
2022-12-25T01:45:44.826Z,4.21
2022-12-25T01:55:51.586Z,4.28
2022-12-25T02:05:55.969Z,4.33
2022-12-25T02:16:16.273Z,4.23
2022-12-25T02:26:57.780Z,4.14
2022-12-25T02:37:11.580Z,4.12
2022-12-25T02:47:35.537Z,4.11
2022-12-25T02:58:03.118Z,4.07
2022-12-25T03:08:12.719Z,3.98
2022-12-25T03:18:20.126Z,4.07
2022-12-25T03:28:23.780Z,4.07
2022-12-25T03:39:25.626Z,3.99
2022-12-25T03:50:01.638Z,3.84
2022-12-25T04:00:24.895Z,3.74
2022-12-25T04:10:47.350Z,3.68
2022-12-25T04:21:10.031Z,3.66
2022-12-25T04:31:32.784Z,3.69
2022-12-25T04:41:36.831Z,3.74
2022-12-25T04:51:40.568Z,3.80
2022-12-25T05:01:44.662Z,3.95
2022-12-25T05:11:48.619Z,3.95
2022-12-25T05:21:52.393Z,3.90
2022-12-25T05:31:56.266Z,3.75
2022-12-25T05:42:00.127Z,3.54
2022-12-25T05:52:04.306Z,3.48
2022-12-25T06:02:08.280Z,3.45
2022-12-25T06:12:12.351Z,3.37
2022-12-25T06:22:16.115Z,3.31
2022-12-25T06:32:20.814Z,3.29
2022-12-25T06:42:24.525Z,3.31
2022-12-25T06:52:28.364Z,3.41
2022-12-25T07:02:34.408Z,3.51
2022-12-25T07:12:38.687Z,3.71
2022-12-25T07:22:42.628Z,3.70
2022-12-25T07:32:50.117Z,3.55
2022-12-25T07:42:54.551Z,3.63
2022-12-25T07:52:58.627Z,3.85
2022-12-25T08:03:03.063Z,4.14
2022-12-25T08:13:13.956Z,4.44
2022-12-25T08:23:18.543Z,4.74
2022-12-25T08:33:22.899Z,4.90
2022-12-25T08:43:26.884Z,5.04
2022-12-25T08:53:31.175Z,5.26
2022-12-25T09:03:36.283Z,5.46
2022-12-25T09:13:40.437Z,5.68
2022-12-25T09:23:44.812Z,6.04
2022-12-25T09:33:49.627Z,6.26
2022-12-25T09:44:11.706Z,6.41
2022-12-25T09:54:38.617Z,6.41
2022-12-25T10:05:09.067Z,6.32
2022-12-25T10:15:45.250Z,6.22
2022-12-25T10:25:52.235Z,6.22
2022-12-25T10:35:56.495Z,6.27
2022-12-25T10:46:00.913Z,6.36
2022-12-25T10:56:08.281Z,6.42
2022-12-25T11:06:29.919Z,6.42
2022-12-25T11:16:40.628Z,6.38
2022-12-25T11:26:53.469Z,6.29
2022-12-25T11:37:00.469Z,6.26
2022-12-25T11:47:14.155Z,6.27
2022-12-25T11:57:19.049Z,6.17
2022-12-25T12:07:30.586Z,6.15
2022-12-25T12:17:35.490Z,6.18
2022-12-25T12:27:41.515Z,6.03
2022-12-25T12:37:51.748Z,5.89
2022-12-25T12:47:56.397Z,5.90
2022-12-25T12:58:02.947Z,5.69
2022-12-25T13:08:39.736Z,5.64
2022-12-25T13:18:44.545Z,5.58
2022-12-25T13:28:48.946Z,5.42
2022-12-25T13:38:57.095Z,5.19
2022-12-25T13:49:02.431Z,5.07
2022-12-25T13:59:06.697Z,4.85
2022-12-25T14:09:13.102Z,4.52
2022-12-25T14:19:34.956Z,4.22
2022-12-25T14:29:47.578Z,3.82
2022-12-25T14:39:57.768Z,3.37
2022-12-25T14:50:02.242Z,3.07
2022-12-25T15:00:30.392Z,2.72
2022-12-25T15:21:00.589Z,2.11
2022-12-25T15:31:15.751Z,1.89
2022-12-25T15:42:20.902Z,1.65
2022-12-25T15:52:25.195Z,1.48
2022-12-25T16:02:29.251Z,1.31
2022-12-25T16:12:33.647Z,1.05
2022-12-25T16:22:40.378Z,0.91
2022-12-25T16:32:51.766Z,0.83
2022-12-25T16:42:58.478Z,0.94
2022-12-25T16:53:02.741Z,1.00
2022-12-25T17:03:07.148Z,1.18
2022-12-25T17:13:11.449Z,1.24
2022-12-25T17:23:16.047Z,1.41
2022-12-25T17:33:20.387Z,1.30
2022-12-25T17:43:24.774Z,1.29
2022-12-25T17:53:28.939Z,1.30
2022-12-25T18:03:33.302Z,1.33
2022-12-25T18:13:38.222Z,1.33
2022-12-25T18:23:42.992Z,1.21
2022-12-25T18:33:48.194Z,1.15
2022-12-25T18:43:55.586Z,1.10
2022-12-25T18:54:02.185Z,1.20
2022-12-25T19:04:06.760Z,1.33
2022-12-25T19:14:11.125Z,1.26
2022-12-25T19:24:16.236Z,1.27
2022-12-25T19:34:20.728Z,1.25
2022-12-25T19:44:26.522Z,1.22
2022-12-25T19:54:31.474Z,1.44
2022-12-25T20:04:36.260Z,1.67
2022-12-25T20:14:41.029Z,1.67
2022-12-25T20:24:48.163Z,1.57
2022-12-25T20:34:52.775Z,1.56
2022-12-25T20:44:57.321Z,1.53
2022-12-25T20:55:02.558Z,1.54
2022-12-25T21:05:11.969Z,1.58
2022-12-25T21:15:16.649Z,1.66
2022-12-25T21:25:20.585Z,1.71
2022-12-25T21:35:25.075Z,1.59
2022-12-25T21:45:30.547Z,1.36
2022-12-25T21:55:35.666Z,1.13
2022-12-25T22:05:58.466Z,1.18
2022-12-25T22:16:24.975Z,1.23
2022-12-25T22:26:28.958Z,1.36
2022-12-25T22:36:33.171Z,1.48
2022-12-25T22:46:37.525Z,1.59
2022-12-25T22:56:41.562Z,1.63
2022-12-25T23:06:46.901Z,1.79
2022-12-25T23:16:50.832Z,1.90
2022-12-25T23:26:55.948Z,1.94
2022-12-25T23:37:00.433Z,1.94
2022-12-25T23:47:05.788Z,2.06
2022-12-25T23:57:11.358Z,2.18
